Time;durP1;ratioP1;P1;durP2;ratioP2;P2;SDS_P1;SDS_P2;PMS_P1;PMS_P2;Temp;Humidity;BMP_temperature;BMP_pressure;BME280_temperature;BME280_humidity;BME280_pressure;Samples;Min_cycle;Max_cycle;Signal;HPM_P1;HPM_P2
2022/08/14 00:01:09;;;;;;;11.13;8.35;;;18.10;99.90;;;;;;5015653;28;20038;-68
2022/08/14 00:03:34;;;;;;;15.60;9.25;;;18.10;99.90;;;;;;5016788;28;20030;-68
2022/08/14 00:06:02;;;;;;;13.90;9.65;;;18.10;99.90;;;;;;5016816;28;20037;-68
2022/08/14 00:08:28;;;;;;;11.27;8.95;;;18.10;99.90;;;;;;5016781;28;20065;-68
2022/08/14 00:10:54;;;;;;;14.07;8.82;;;18.10;99.90;;;;;;5016886;28;20037;-68
2022/08/14 00:13:23;;;;;;;10.38;8.45;;;18.10;99.90;;;;;;5015605;28;20034;-68
2022/08/14 00:15:50;;;;;;;11.85;8.90;;;18.20;99.90;;;;;;5015470;28;20026;-68
2022/08/14 00:18:21;;;;;;;12.43;8.85;;;18.30;99.90;;;;;;5016623;28;20111;-68
2022/08/14 00:20:49;;;;;;;15.70;8.68;;;18.30;99.90;;;;;;5016718;28;20026;-68
2022/08/14 00:23:16;;;;;;;14.35;8.50;;;18.40;99.90;;;;;;5016396;28;20033;-68
2022/08/14 00:25:44;;;;;;;9.32;7.68;;;18.50;99.90;;;;;;5016144;28;20038;-68
2022/08/14 00:28:12;;;;;;;12.53;8.63;;;18.50;99.90;;;;;;5016429;28;20022;-68
2022/08/14 00:30:39;;;;;;;10.45;8.35;;;18.60;99.90;;;;;;5016658;28;20260;-68
2022/08/14 00:33:04;;;;;;;13.18;9.10;;;18.70;99.90;;;;;;5015039;28;20034;-68
2022/08/14 00:35:31;;;;;;;10.10;8.40;;;18.70;99.90;;;;;;5016277;28;20030;-68
2022/08/14 00:37:57;;;;;;;10.23;7.93;;;18.80;99.90;;;;;;5016700;28;20419;-69
2022/08/14 00:40:23;;;;;;;13.85;8.55;;;18.80;99.90;;;;;;5029245;28;20048;-68
2022/08/14 00:42:49;;;;;;;11.70;8.02;;;18.80;99.90;;;;;;5035578;28;20029;-68
2022/08/14 00:45:15;;;;;;;9.02;7.97;;;18.90;99.90;;;;;;5035870;28;20430;-68
2022/08/14 00:47:43;;;;;;;9.55;7.90;;;18.90;99.90;;;;;;5018070;28;20153;-68
2022/08/14 00:50:11;;;;;;;9.80;7.53;;;19.00;99.90;;;;;;5018176;28;20025;-68
2022/08/14 00:52:37;;;;;;;10.57;7.82;;;19.10;99.90;;;;;;5017579;28;20030;-68
2022/08/14 00:55:05;;;;;;;12.93;7.75;;;19.10;99.90;;;;;;5035651;28;20022;-68
2022/08/14 00:57:33;;;;;;;8.38;6.97;;;19.20;99.90;;;;;;5035559;28;20495;-68
2022/08/14 01:00:00;;;;;;;10.80;7.88;;;19.20;99.90;;;;;;5035576;28;20033;-69
2022/08/14 01:02:27;;;;;;;9.40;7.60;;;19.30;99.90;;;;;;5035479;28;20171;-68
2022/08/14 01:04:57;;;;;;;11.38;8.25;;;19.30;99.90;;;;;;5035489;28;20132;-68
2022/08/14 01:07:24;;;;;;;9.90;7.85;;;19.30;99.90;;;;;;5035446;28;20463;-68
2022/08/14 01:09:57;;;;;;;10.45;8.38;;;19.40;99.90;;;;;;5035809;28;20125;-68
2022/08/14 01:12:24;;;;;;;11.35;8.00;;;19.40;99.90;;;;;;5017593;28;20034;-68
2022/08/14 01:14:54;;;;;;;10.88;7.32;;;19.50;99.90;;;;;;5017888;28;20422;-68
2022/08/14 01:17:21;;;;;;;8.73;6.88;;;19.50;99.90;;;;;;5017470;28;20064;-68
2022/08/14 01:22:32;;;;;;;8.43;7.00;;;19.60;99.90;;;;;;5035085;28;20044;-68
2022/08/14 01:24:58;;;;;;;9.77;7.63;;;19.60;99.90;;;;;;5035276;28;20029;-68
2022/08/14 01:27:24;;;;;;;9.05;6.85;;;19.70;99.90;;;;;;5035042;28;20071;-68
2022/08/14 01:29:52;;;;;;;10.85;7.13;;;19.70;99.90;;;;;;5034682;28;20100;-68
2022/08/14 01:32:20;;;;;;;9.40;7.10;;;19.70;99.90;;;;;;5035181;28;20033;-68
2022/08/14 01:34:54;;;;;;;10.68;7.60;;;19.80;99.90;;;;;;5034946;28;20109;-68
2022/08/14 01:37:24;;;;;;;7.35;6.53;;;19.90;99.90;;;;;;5017660;28;20028;-68
2022/08/14 01:39:50;;;;;;;7.65;6.38;;;19.80;99.90;;;;;;5017783;28;20049;-68
2022/08/14 01:42:17;;;;;;;6.85;6.15;;;19.90;99.90;;;;;;5034441;28;20426;-68
2022/08/14 01:44:49;;;;;;;8.98;6.82;;;19.90;99.90;;;;;;5016987;28;20033;-68
2022/08/14 01:47:15;;;;;;;9.18;7.15;;;20.00;99.90;;;;;;5034868;28;20383;-68
2022/08/14 01:49:41;;;;;;;9.77;7.28;;;20.00;99.90;;;;;;5017265;28;20033;-68
2022/08/14 01:52:07;;;;;;;7.65;6.70;;;20.00;99.90;;;;;;5034558;28;20108;-68
2022/08/14 01:54:35;;;;;;;8.35;6.60;;;20.00;99.90;;;;;;5016822;28;20083;-68
2022/08/14 01:57:01;;;;;;;10.27;6.70;;;20.00;99.90;;;;;;5034507;28;20029;-68
2022/08/14 01:59:31;;;;;;;8.15;6.72;;;20.10;99.90;;;;;;5034497;28;20030;-68
2022/08/14 02:02:04;;;;;;;7.65;6.70;;;20.10;99.90;;;;;;5034396;28;20032;-68
2022/08/14 02:04:35;;;;;;;7.90;6.18;;;20.10;99.90;;;;;;5016998;28;20037;-68
2022/08/14 02:07:02;;;;;;;8.10;7.05;;;20.10;99.90;;;;;;5034036;28;20029;-68
2022/08/14 02:09:34;;;;;;;8.23;6.97;;;20.10;99.90;;;;;;5016595;28;20037;-68
2022/08/14 02:12:01;;;;;;;10.00;6.80;;;20.10;99.90;;;;;;5034534;28;20028;-68
2022/08/14 02:14:27;;;;;;;8.07;7.15;;;20.10;99.90;;;;;;5033922;28;20104;-68
2022/08/14 02:16:54;;;;;;;7.72;6.93;;;20.10;99.90;;;;;;5033850;28;20486;-68
2022/08/14 02:19:28;;;;;;;7.22;6.40;;;20.10;99.90;;;;;;5034287;28;20035;-68
2022/08/14 02:21:57;;;;;;;8.38;6.18;;;20.10;99.90;;;;;;5034159;28;20108;-68
2022/08/14 02:24:24;;;;;;;8.93;6.15;;;20.10;99.90;;;;;;5016324;28;20486;-68
2022/08/14 02:26:52;;;;;;;7.85;6.53;;;20.10;99.90;;;;;;5033753;28;20468;-68
2022/08/14 02:29:21;;;;;;;9.02;6.53;;;20.10;99.90;;;;;;5017051;28;20032;-68
2022/08/14 02:31:50;;;;;;;;;;;20.10;99.90;;;;;;5034339;28;20022;-68
2022/08/14 02:34:30;;;;;;;7.13;6.05;;;20.10;99.90;;;;;;5034209;28;20354;-68
2022/08/14 02:37:01;;;;;;;7.10;6.40;;;20.10;99.90;;;;;;5033850;28;20017;-68
2022/08/14 02:39:30;;;;;;;7.60;6.45;;;20.10;99.90;;;;;;5016086;28;20049;-68
2022/08/14 02:41:59;;;;;;;6.75;5.95;;;20.10;99.90;;;;;;5016110;28;20474;-68
2022/08/14 02:44:25;;;;;;;6.80;6.00;;;20.10;99.90;;;;;;5016086;28;20033;-68
2022/08/14 02:46:53;;;;;;;7.90;6.65;;;20.10;99.90;;;;;;5033777;28;20108;-68
2022/08/14 02:49:26;;;;;;;7.53;6.40;;;20.10;99.90;;;;;;5033708;28;20025;-68
2022/08/14 02:51:52;;;;;;;9.57;6.47;;;20.10;99.90;;;;;;5033812;28;20041;-68
2022/08/14 02:54:20;;;;;;;8.07;6.13;;;20.10;99.90;;;;;;5015618;28;20057;-68
2022/08/14 02:56:46;;;;;;;11.02;6.85;;;20.10;99.90;;;;;;5015636;28;20021;-68
2022/08/14 02:59:12;;;;;;;7.93;6.93;;;20.10;99.90;;;;;;5033827;28;20030;-68
2022/08/14 03:01:39;;;;;;;8.13;6.30;;;20.10;99.90;;;;;;5033689;28;20022;-68
2022/08/14 03:04:06;;;;;;;7.13;6.43;;;20.00;99.90;;;;;;5033809;28;20387;-68
2022/08/14 03:06:32;;;;;;;9.25;6.72;;;20.10;99.90;;;;;;5015541;28;20044;-68
2022/08/14 03:08:58;;;;;;;6.55;5.80;;;20.10;99.90;;;;;;5033247;28;20037;-68
2022/08/14 03:11:25;;;;;;;9.15;6.50;;;20.10;99.90;;;;;;5033628;28;20061;-68
2022/08/14 03:13:51;;;;;;;7.55;6.45;;;20.10;99.90;;;;;;5033479;28;20032;-67
2022/08/14 03:16:20;;;;;;;7.63;6.85;;;20.10;99.90;;;;;;5033468;28;20033;-68
2022/08/14 03:18:48;;;;;;;7.47;6.50;;;20.10;99.90;;;;;;5033866;28;20033;-68
2022/08/14 03:21:16;;;;;;;8.05;6.60;;;20.10;99.90;;;;;;5033454;28;20022;-68
2022/08/14 03:23:44;;;;;;;7.88;6.28;;;20.10;99.90;;;;;;5033140;28;20076;-68
2022/08/14 03:26:12;;;;;;;7.93;6.07;;;20.10;99.90;;;;;;5033137;28;20493;-68
2022/08/14 03:28:41;;;;;;;8.40;6.60;;;20.10;99.90;;;;;;5033614;28;20045;-68
2022/08/14 03:31:07;;;;;;;;;;;20.10;99.90;;;;;;5033901;28;20064;-68
2022/08/14 03:33:36;;;;;;;6.68;6.00;;;20.10;99.90;;;;;;5033350;28;19909;-68
2022/08/14 03:36:07;;;;;;;8.40;6.80;;;20.10;99.90;;;;;;5033378;28;20035;-68
2022/08/14 03:38:33;;;;;;;7.45;6.10;;;20.10;99.90;;;;;;5015680;28;20068;-68
2022/08/14 03:40:58;;;;;;;7.50;6.38;;;20.10;99.90;;;;;;5033292;28;20077;-68
2022/08/14 03:43:25;;;;;;;11.05;6.45;;;20.10;99.90;;;;;;5033217;28;20116;-68
2022/08/14 03:45:51;;;;;;;9.18;6.43;;;20.00;99.90;;;;;;5033161;28;20064;-68
2022/08/14 03:48:20;;;;;;;8.80;6.90;;;20.00;99.90;;;;;;5033584;28;20049;-68
2022/08/14 03:50:53;;;;;;;8.07;7.10;;;20.00;99.90;;;;;;5036852;28;20056;-68
2022/08/14 03:53:19;;;;;;;8.13;6.45;;;20.00;99.90;;;;;;5036585;28;20042;-68
2022/08/14 03:55:45;;;;;;;8.25;6.90;;;19.90;99.90;;;;;;5036784;28;20017;-68
2022/08/14 03:58:12;;;;;;;10.15;7.05;;;19.90;99.90;;;;;;5036473;28;20025;-68
2022/08/14 04:00:39;;;;;;;8.07;6.53;;;19.90;99.90;;;;;;5036907;28;20022;-68
2022/08/14 04:03:07;;;;;;;7.85;7.05;;;20.00;99.90;;;;;;5036631;28;20455;-68
2022/08/14 04:05:33;;;;;;;9.10;6.50;;;20.00;99.90;;;;;;5018870;28;20040;-68
2022/08/14 04:07:59;;;;;;;10.18;7.43;;;20.00;99.90;;;;;;5036827;28;20026;-68
2022/08/14 04:10:25;;;;;;;7.60;6.78;;;19.90;99.90;;;;;;5036546;28;20026;-68
2022/08/14 04:12:51;;;;;;;9.90;7.13;;;19.90;99.90;;;;;;5036476;28;20030;-68
2022/08/14 04:15:18;;;;;;;10.48;7.47;;;19.90;99.90;;;;;;5036417;28;20033;-68
2022/08/14 04:17:44;;;;;;;15.65;7.63;;;19.80;99.90;;;;;;5036376;28;20108;-68
2022/08/14 04:20:11;;;;;;;9.18;7.13;;;19.80;99.90;;;;;;5036133;28;20096;-68
2022/08/14 04:22:41;;;;;;;7.38;6.68;;;19.80;99.90;;;;;;5036199;28;20022;-68
2022/08/14 04:25:07;;;;;;;7.47;6.72;;;19.80;99.90;;;;;;5018397;28;20076;-68
2022/08/14 04:27:34;;;;;;;8.07;7.13;;;19.90;99.90;;;;;;5036381;28;20467;-68
2022/08/14 04:29:59;;;;;;;10.02;7.30;;;19.90;99.90;;;;;;5036140;28;20025;-68
2022/08/14 04:32:25;;;;;;;7.65;6.95;;;19.90;99.90;;;;;;5018367;28;20079;-68
2022/08/14 04:34:52;;;;;;;7.72;6.93;;;19.90;99.90;;;;;;5036127;28;20104;-68
2022/08/14 04:45:54;;;;;;;7.70;6.70;;;19.90;99.90;;;;;;5030692;28;20048;-68
2022/08/14 04:48:20;;;;;;;9.50;6.88;;;19.90;99.90;;;;;;5035973;28;20448;-68
2022/08/14 04:50:48;;;;;;;13.15;7.30;;;19.90;99.90;;;;;;5036002;28;20060;-68
2022/08/14 04:53:18;;;;;;;15.27;7.43;;;19.90;99.90;;;;;;5036011;28;20064;-68
2022/08/14 04:55:47;;;;;;;9.00;7.60;;;19.90;99.90;;;;;;5035814;28;20030;-75
2022/08/14 04:58:23;;;;;;;8.18;6.97;;;19.90;99.90;;;;;;5035837;28;20057;-66
2022/08/14 05:00:50;;;;;;;8.45;7.22;;;19.90;99.90;;;;;;5034780;28;20033;-66
2022/08/14 05:03:20;;;;;;;7.78;6.97;;;19.90;99.90;;;;;;5035467;28;20021;-66
2022/08/14 05:05:54;;;;;;;8.95;7.15;;;20.00;99.90;;;;;;5035304;28;20056;-66
2022/08/14 05:08:21;;;;;;;8.73;7.32;;;20.00;99.90;;;;;;5035482;28;20045;-68
2022/08/14 05:10:53;;;;;;;8.38;7.15;;;20.00;99.90;;;;;;5035384;28;20422;-68
2022/08/14 05:13:20;;;;;;;8.65;7.47;;;20.00;99.90;;;;;;5035534;28;20078;-68
2022/08/14 05:15:46;;;;;;;9.48;7.78;;;19.90;99.90;;;;;;5035287;28;20021;-66
2022/08/14 05:18:18;;;;;;;8.65;7.57;;;19.90;99.90;;;;;;5017560;28;20032;-64
2022/08/14 05:20:47;;;;;;;8.48;7.65;;;19.90;99.90;;;;;;5017669;28;20045;-65
2022/08/14 05:23:14;;;;;;;10.88;8.10;;;20.00;99.90;;;;;;5017374;28;20040;-64
2022/08/14 05:25:41;;;;;;;9.38;8.43;;;20.00;99.90;;;;;;5035327;28;20088;-64
2022/08/14 05:28:11;;;;;;;10.82;8.52;;;20.00;99.90;;;;;;5035052;28;20527;-64
2022/08/14 05:30:38;;;;;;;9.77;8.68;;;20.00;99.90;;;;;;5034979;28;20091;-64
2022/08/14 05:33:05;;;;;;;9.32;7.97;;;20.00;99.90;;;;;;5034924;28;20036;-73
2022/08/14 05:35:31;;;;;;;9.38;7.82;;;20.00;99.90;;;;;;5034804;28;20021;-74
2022/08/14 05:38:12;;;;;;;7.65;6.90;;;20.10;99.90;;;;;;5017050;28;20062;-66
2022/08/14 05:40:42;;;;;;;12.50;7.93;;;20.20;99.90;;;;;;5034408;28;20049;-68
2022/08/14 05:43:08;;;;;;;8.88;7.97;;;20.10;99.90;;;;;;5034664;28;20025;-67
2022/08/14 05:45:34;;;;;;;8.43;7.55;;;20.10;99.90;;;;;;5034669;28;20040;-68
2022/08/14 05:48:05;;;;;;;10.50;7.97;;;20.10;99.90;;;;;;5034878;28;20470;-67
2022/08/14 05:50:32;;;;;;;9.48;8.25;;;20.00;99.90;;;;;;5016958;28;20021;-66
2022/08/14 05:52:58;;;;;;;9.38;8.15;;;20.00;99.90;;;;;;5034721;28;20053;-67
2022/08/14 05:55:24;;;;;;;9.82;8.30;;;20.00;99.90;;;;;;5034676;28;20028;-67
2022/08/14 05:57:50;;;;;;;12.30;8.13;;;20.10;99.90;;;;;;5016801;28;20052;-67
2022/08/14 06:00:18;;;;;;;11.88;8.70;;;20.20;99.90;;;;;;5034432;28;20383;-70
2022/08/14 06:02:44;;;;;;;9.80;8.35;;;20.30;99.90;;;;;;5017136;28;20034;-69
2022/08/14 06:05:10;;;;;;;9.43;8.45;;;20.40;99.90;;;;;;5016674;28;20494;-68
2022/08/14 06:07:36;;;;;;;9.00;8.10;;;20.50;99.90;;;;;;5034225;28;20034;-72
2022/08/14 06:10:03;;;;;;;9.98;8.63;;;20.50;99.90;;;;;;5034314;28;20036;-69
2022/08/14 06:12:29;;;;;;;10.80;8.57;;;20.60;99.90;;;;;;5033345;28;20033;-69
2022/08/14 06:14:55;;;;;;;11.13;8.77;;;20.70;99.90;;;;;;5034171;28;20489;-68
2022/08/14 06:17:21;;;;;;;9.27;8.38;;;20.70;99.90;;;;;;5034183;28;20031;-69
2022/08/14 06:19:46;;;;;;;9.48;8.40;;;20.70;99.90;;;;;;5034527;28;20104;-69
2022/08/14 06:22:12;;;;;;;10.45;8.90;;;20.80;99.90;;;;;;5033679;28;20025;-75
2022/08/14 06:24:38;;;;;;;10.07;8.98;;;20.80;99.90;;;;;;5033744;28;20501;-69
2022/08/14 06:27:04;;;;;;;11.88;8.00;;;20.80;99.90;;;;;;5016639;28;20029;-69
2022/08/14 06:29:30;;;;;;;10.90;8.85;;;20.80;99.90;;;;;;5042964;28;20385;-63
2022/08/14 06:31:56;;;;;;;9.15;8.25;;;20.80;99.90;;;;;;5073419;28;20103;-62
2022/08/14 06:34:21;;;;;;;10.27;9.10;;;21.00;99.90;;;;;;5073315;28;20107;-63
2022/08/14 06:36:47;;;;;;;8.93;7.93;;;21.20;99.90;;;;;;5073583;28;20028;-61
2022/08/14 06:39:13;;;;;;;9.80;8.80;;;21.30;99.90;;;;;;5073733;28;20047;-62
2022/08/14 06:41:40;;;;;;;9.50;8.23;;;21.40;99.90;;;;;;5055581;28;20042;-62
2022/08/14 06:44:07;;;;;;;9.23;7.97;;;21.50;99.90;;;;;;5056248;28;20033;-69
2022/08/14 06:46:34;;;;;;;10.25;7.78;;;21.50;99.90;;;;;;5055740;28;20048;-68
2022/08/14 06:49:00;;;;;;;9.52;8.18;;;21.70;99.90;;;;;;5073449;28;20038;-68
2022/08/14 06:51:26;;;;;;;10.77;8.82;;;21.70;99.90;;;;;;5073585;28;20107;-69
2022/08/14 06:53:51;;;;;;;9.85;8.85;;;21.60;99.90;;;;;;5055592;28;20410;-69
2022/08/14 06:56:17;;;;;;;11.75;8.98;;;21.60;99.90;;;;;;5073604;28;20021;-69
2022/08/14 06:58:43;;;;;;;10.43;8.30;;;21.50;99.90;;;;;;5073573;28;20021;-69
2022/08/14 07:06:38;;;;;;;13.65;9.20;;;21.80;99.90;;;;;;5073531;28;20440;-62
2022/08/14 07:09:03;;;;;;;11.82;7.95;;;21.60;99.90;;;;;;5073500;28;20024;-62
2022/08/14 07:11:29;;;;;;;9.88;8.50;;;21.60;99.90;;;;;;5073711;28;20029;-62
2022/08/14 07:13:55;;;;;;;11.73;8.07;;;21.60;99.90;;;;;;5073083;28;20449;-63
2022/08/14 07:16:21;;;;;;;8.98;7.65;;;21.70;99.90;;;;;;5073541;28;20059;-62
2022/08/14 07:18:47;;;;;;;10.95;8.45;;;21.70;99.90;;;;;;5055336;28;20029;-62
2022/08/14 07:21:12;;;;;;;9.10;8.18;;;21.70;99.90;;;;;;5055373;28;20044;-62
2022/08/14 07:23:38;;;;;;;10.35;7.63;;;21.70;99.90;;;;;;5073888;28;20035;-62
2022/08/14 07:26:04;;;;;;;8.80;7.88;;;21.70;99.90;;;;;;5077340;28;20055;-62
2022/08/14 07:28:32;;;;;;;11.95;8.57;;;21.70;99.90;;;;;;5059270;28;20029;-62
2022/08/14 07:30:59;;;;;;;8.70;7.88;;;21.60;99.90;;;;;;5059540;28;20477;-62
2022/08/14 07:33:27;;;;;;;8.27;7.38;;;21.50;99.90;;;;;;5059307;28;20389;-62
2022/08/14 07:35:54;;;;;;;9.18;8.27;;;21.40;99.90;;;;;;5059125;28;20031;-62
2022/08/14 07:38:21;;;;;;;8.98;7.07;;;21.30;99.90;;;;;;5077061;28;20045;-63
2022/08/14 07:40:49;;;;;;;10.15;8.27;;;21.40;99.90;;;;;;5076523;28;20063;-63
2022/08/14 07:43:15;;;;;;;8.80;7.97;;;21.40;99.90;;;;;;5076960;28;20029;-63
2022/08/14 07:45:41;;;;;;;8.52;7.63;;;21.30;99.90;;;;;;5077065;28;20037;-63
2022/08/14 07:48:07;;;;;;;8.30;7.50;;;21.30;99.90;;;;;;5076817;28;20370;-63
2022/08/14 07:50:33;;;;;;;8.55;7.65;;;21.30;99.90;;;;;;5077079;28;20024;-63
2022/08/14 07:52:59;;;;;;;8.85;7.95;;;21.20;99.90;;;;;;5058764;28;20115;-63
2022/08/14 07:55:25;;;;;;;10.13;8.50;;;21.20;99.90;;;;;;5076427;28;20052;-63
2022/08/14 07:57:51;;;;;;;8.45;7.55;;;21.30;99.90;;;;;;5076950;28;20021;-63
2022/08/14 08:00:21;;;;;;;10.52;7.60;;;21.20;99.90;;;;;;5076645;28;20054;-68
2022/08/14 08:02:48;;;;;;;8.35;7.60;;;21.30;99.90;;;;;;5059126;28;20036;-69
2022/08/14 08:05:15;;;;;;;8.57;7.78;;;21.00;99.90;;;;;;5076604;28;20039;-68
2022/08/14 08:07:43;;;;;;;7.88;7.07;;;20.90;99.90;;;;;;5076462;28;20025;-71
2022/08/14 08:10:30;;;;;;;8.18;7.32;;;21.00;99.90;;;;;;5059068;28;20033;-69
2022/08/14 08:13:13;;;;;;;9.57;7.35;;;21.00;99.90;;;;;;5076655;28;20039;-70
2022/08/14 08:15:45;;;;;;;8.23;7.28;;;20.80;99.90;;;;;;5059000;28;20024;-69
2022/08/14 08:18:12;;;;;;;11.48;8.30;;;20.90;99.90;;;;;;5058427;28;20024;-68
2022/08/14 08:20:41;;;;;;;8.02;7.30;;;21.10;99.90;;;;;;5076297;28;20020;-70
2022/08/14 08:23:08;;;;;;;8.85;7.65;;;21.30;99.90;;;;;;5058561;28;20435;-68
2022/08/14 08:25:39;;;;;;;7.68;6.80;;;21.40;99.90;;;;;;5059028;28;20086;-70
2022/08/14 08:28:17;;;;;;;9.45;6.95;;;21.60;99.90;;;;;;5058163;28;20100;-70
2022/08/14 08:30:57;;;;;;;8.10;7.00;;;21.80;99.90;;;;;;5076107;28;20020;-68
2022/08/14 08:33:30;;;;;;;9.00;7.70;;;21.70;99.90;;;;;;5075668;28;20024;-69
2022/08/14 08:36:02;;;;;;;9.50;7.10;;;21.60;99.90;;;;;;5075065;28;20112;-68
2022/08/14 08:38:28;;;;;;;8.90;6.75;;;21.70;99.90;;;;;;5075950;28;20024;-69
2022/08/14 08:40:55;;;;;;;7.63;6.93;;;21.90;99.90;;;;;;5075523;28;20106;-70
2022/08/14 08:43:27;;;;;;;8.05;7.20;;;21.90;99.90;;;;;;5075792;28;20039;-73
2022/08/14 08:45:55;;;;;;;7.57;6.63;;;21.90;99.90;;;;;;5058176;28;20081;-63
2022/08/14 08:48:28;;;;;;;8.95;8.05;;;21.90;99.90;;;;;;5075805;28;20033;-67
2022/08/14 08:50:58;;;;;;;8.32;7.47;;;22.00;99.90;;;;;;5057988;28;20032;-69
2022/08/14 08:53:31;;;;;;;7.60;6.82;;;22.20;99.90;;;;;;5075702;28;20051;-70
2022/08/14 08:55:57;;;;;;;8.68;7.22;;;22.50;99.90;;;;;;5075648;28;20032;-70
2022/08/14 08:58:24;;;;;;;8.13;7.32;;;23.10;99.90;;;;;;5075315;28;20381;-70
2022/08/14 09:00:52;;;;;;;7.22;6.53;;;23.70;99.90;;;;;;5075578;28;20472;-70
2022/08/14 09:03:23;;;;;;;10.23;6.85;;;24.10;99.90;;;;;;5075480;28;20071;-70
2022/08/14 09:05:50;;;;;;;7.57;6.70;;;24.30;99.90;;;;;;5057647;28;20036;-67
2022/08/14 09:08:18;;;;;;;10.18;6.72;;;24.50;99.90;;;;;;5057517;28;20025;-67
2022/08/14 09:10:45;;;;;;;9.18;6.80;;;24.60;99.90;;;;;;5057332;28;20028;-70
2022/08/14 09:13:11;;;;;;;7.43;6.72;;;24.70;99.90;;;;;;5075103;28;20036;-67
2022/08/14 09:15:44;;;;;;;7.93;7.18;;;24.70;99.90;;;;;;5075198;28;20028;-67
2022/08/14 09:18:11;;;;;;;10.05;7.45;;;24.50;99.90;;;;;;5075157;28;20028;-67
2022/08/14 09:20:45;;;;;;;7.38;6.68;;;24.80;99.90;;;;;;5075101;28;20029;-67
2022/08/14 09:23:12;;;;;;;8.55;7.28;;;24.80;99.90;;;;;;5074954;28;20516;-68
2022/08/14 09:25:44;;;;;;;7.93;7.18;;;24.50;99.90;;;;;;5057392;28;20071;-71
2022/08/14 09:28:12;;;;;;;7.80;6.97;;;24.50;99.90;;;;;;5075611;28;20530;-64
2022/08/14 09:30:55;;;;;;;8.30;7.45;;;24.30;99.90;;;;;;5074662;28;20094;-63
2022/08/14 09:33:39;;;;;;;10.43;7.22;;;24.20;99.90;;;;;;5074888;28;20033;-62
2022/08/14 09:36:32;;;;;;;11.05;6.82;;;24.10;99.90;;;;;;5074832;28;20035;-63
2022/08/14 09:39:00;;;;;;;8.88;7.57;;;23.90;99.90;;;;;;5074450;28;20078;-63
2022/08/14 09:42:00;;;;;;;9.25;7.75;;;23.90;99.90;;;;;;5074842;28;20033;-63
2022/08/14 09:45:07;;;;;;;8.88;7.10;;;23.90;99.90;;;;;;5074839;28;20043;-63
2022/08/14 09:47:50;;;;;;;9.32;7.40;;;24.10;99.90;;;;;;5074852;28;20127;-62
2022/08/14 09:50:42;;;;;;;7.82;7.03;;;24.40;99.90;;;;;;5074403;28;20033;-63
2022/08/14 09:53:09;;;;;;;10.25;7.68;;;24.60;99.90;;;;;;5074686;28;20074;-63
2022/08/14 09:55:35;;;;;;;8.20;7.35;;;24.90;99.90;;;;;;5074170;28;20108;-63
2022/08/14 09:58:16;;;;;;;8.10;7.15;;;25.00;99.90;;;;;;5074314;28;20104;-63
2022/08/14 10:00:46;;;;;;;11.85;7.10;;;25.20;99.90;;;;;;5074394;28;20028;-70
2022/08/14 10:03:12;;;;;;;10.45;7.47;;;25.20;99.90;;;;;;5064084;28;20060;-59
2022/08/14 10:05:39;;;;;;;8.77;7.10;;;25.00;99.90;;;;;;5042272;28;20061;-59
2022/08/14 10:08:16;;;;;;;8.00;7.20;;;24.90;99.90;;;;;;5039467;28;20033;-59
2022/08/14 10:10:42;;;;;;;8.00;7.30;;;25.00;99.90;;;;;;5046629;28;20043;-59
2022/08/14 10:13:24;;;;;;;8.15;7.25;;;25.10;99.90;;;;;;5040726;28;20075;-59
2022/08/14 10:15:56;;;;;;;10.35;7.45;;;25.20;99.90;;;;;;5032513;28;20075;-59
2022/08/14 10:18:28;;;;;;;7.95;7.25;;;25.30;99.90;;;;;;5054191;28;20040;-59
2022/08/14 10:20:56;;;;;;;8.45;7.00;;;25.40;99.90;;;;;;5054160;28;20089;-58
2022/08/14 10:23:25;;;;;;;10.65;7.45;;;25.50;99.90;;;;;;5053941;28;20386;-59
2022/08/14 10:25:56;;;;;;;8.35;7.38;;;25.50;99.90;;;;;;5054182;28;20044;-59
2022/08/14 10:28:22;;;;;;;8.18;7.38;;;25.50;99.90;;;;;;5054483;28;20033;-59
2022/08/14 10:30:53;;;;;;;8.23;7.43;;;25.60;99.90;;;;;;5054130;28;20021;-59
2022/08/14 10:33:31;;;;;;;10.30;7.30;;;25.50;99.90;;;;;;5036085;28;20037;-59
2022/08/14 10:36:01;;;;;;;;;;;25.60;99.90;;;;;;5054422;28;20033;-59
2022/08/14 10:38:33;;;;;;;8.32;7.35;;;25.50;99.90;;;;;;5053686;28;19905;-59
2022/08/14 10:41:13;;;;;;;8.00;7.20;;;25.80;99.90;;;;;;5032160;28;20053;-59
2022/08/14 10:43:42;;;;;;;8.05;7.25;;;26.30;99.90;;;;;;5032459;28;20037;-67
2022/08/14 10:46:19;;;;;;;7.82;7.10;;;26.60;99.90;;;;;;5033814;28;20032;-59
2022/08/14 10:49:01;;;;;;;8.60;7.72;;;27.00;99.90;;;;;;5033704;28;20475;-59
2022/08/14 10:51:29;;;;;;;7.78;7.05;;;27.20;99.90;;;;;;5033744;28;20466;-58
2022/08/14 10:53:57;;;;;;;8.05;7.32;;;26.90;99.90;;;;;;5033703;28;20036;-59
2022/08/14 10:56:32;;;;;;;8.07;7.20;;;26.70;99.90;;;;;;5032401;28;20108;-58
2022/08/14 10:59:02;;;;;;;8.13;7.32;;;26.50;99.90;;;;;;5033023;28;20132;-59
2022/08/14 11:01:38;;;;;;;7.97;7.28;;;26.30;99.90;;;;;;5033638;28;20018;-59
2022/08/14 11:04:04;;;;;;;7.57;6.88;;;26.30;99.90;;;;;;5033918;28;20040;-58
2022/08/14 11:06:31;;;;;;;7.72;6.93;;;26.40;99.90;;;;;;5034257;28;20030;-59
2022/08/14 11:08:57;;;;;;;11.93;8.20;;;26.30;99.90;;;;;;5033544;28;20033;-59
2022/08/14 11:11:26;;;;;;;9.20;8.32;;;26.30;99.90;;;;;;5033758;28;20036;-59
2022/08/14 11:13:56;;;;;;;8.43;7.13;;;26.30;99.90;;;;;;5033762;28;20030;-60
2022/08/14 11:16:23;;;;;;;8.82;7.47;;;26.20;99.90;;;;;;5033368;28;20025;-60
2022/08/14 11:18:50;;;;;;;8.50;7.60;;;26.20;99.90;;;;;;5033487;28;20030;-59
2022/08/14 11:21:19;;;;;;;8.70;7.32;;;26.10;99.90;;;;;;5033699;28;20043;-60
2022/08/14 11:23:46;;;;;;;8.68;7.10;;;26.30;99.90;;;;;;5032057;28;20030;-60
2022/08/14 11:26:17;;;;;;;8.85;7.63;;;26.50;99.90;;;;;;5033398;28;20022;-59
2022/08/14 11:28:46;;;;;;;7.70;6.75;;;26.40;99.70;;;;;;5033511;28;20112;-60
2022/08/14 11:31:12;;;;;;;8.55;7.25;;;26.70;99.60;;;;;;5033377;28;20033;-59
2022/08/14 11:33:39;;;;;;;12.20;6.93;;;27.40;98.90;;;;;;5033027;28;20360;-60
2022/08/14 11:36:08;;;;;;;8.00;7.22;;;28.00;97.60;;;;;;5031753;28;20022;-60
2022/08/14 11:38:41;;;;;;;7.90;7.10;;;28.50;96.30;;;;;;5033317;28;20053;-60
2022/08/14 11:41:07;;;;;;;7.95;7.13;;;28.30;95.90;;;;;;5052289;28;20049;-60
2022/08/14 11:43:45;;;;;;;7.85;7.15;;;28.40;96.00;;;;;;5053037;28;20029;-60
2022/08/14 11:46:12;;;;;;;7.78;7.00;;;28.80;95.40;;;;;;5053137;28;20033;-60
2022/08/14 11:48:52;;;;;;;7.25;6.55;;;28.90;94.80;;;;;;5035249;28;20032;-60
2022/08/14 11:51:27;;;;;;;11.32;7.70;;;29.10;94.20;;;;;;5053293;28;20025;-60
2022/08/14 11:54:05;;;;;;;9.40;7.15;;;29.50;93.20;;;;;;5053114;28;20074;-60
2022/08/14 11:56:40;;;;;;;7.80;7.05;;;29.70;92.70;;;;;;5035337;28;20032;-59
2022/08/14 11:59:13;;;;;;;7.10;6.40;;;29.60;92.30;;;;;;5053049;28;20028;-60
2022/08/14 12:01:39;;;;;;;7.93;7.22;;;29.30;92.30;;;;;;5034997;28;20036;-60
2022/08/14 12:04:10;;;;;;;7.00;6.30;;;28.80;92.80;;;;;;5052855;28;20028;-60
2022/08/14 12:06:54;;;;;;;7.90;7.10;;;28.20;93.40;;;;;;5052809;28;20036;-60
2022/08/14 12:09:28;;;;;;;7.28;6.55;;;27.30;93.90;;;;;;5053233;28;20025;-60
2022/08/14 12:11:55;;;;;;;7.70;6.93;;;26.80;95.40;;;;;;5036929;28;20025;-60
2022/08/14 12:14:21;;;;;;;8.43;6.72;;;26.40;96.30;;;;;;5056079;28;20041;-60
2022/08/14 12:17:02;;;;;;;8.93;7.00;;;26.30;97.10;;;;;;5056338;28;20028;-60
2022/08/14 12:19:28;;;;;;;8.48;6.60;;;26.30;97.70;;;;;;5038502;28;20036;-60
2022/08/14 12:21:54;;;;;;;9.07;6.78;;;26.40;97.10;;;;;;5056277;28;20383;-60
2022/08/14 12:24:26;;;;;;;7.25;6.43;;;26.50;97.40;;;;;;5056207;28;20124;-60
2022/08/14 12:26:56;;;;;;;13.07;7.40;;;26.40;96.80;;;;;;5038463;28;20171;-68
2022/08/14 12:29:21;;;;;;;7.43;6.72;;;26.30;96.60;;;;;;5055810;28;20086;-70
2022/08/14 12:31:57;;;;;;;11.45;6.90;;;26.40;96.90;;;;;;5055777;28;20025;-70
2022/08/14 12:34:31;;;;;;;8.95;7.30;;;26.40;97.00;;;;;;5056060;28;20112;-70
2022/08/14 12:37:07;;;;;;;7.53;6.82;;;26.50;96.50;;;;;;5038886;28;20029;-70
2022/08/14 12:39:34;;;;;;;8.68;7.25;;;26.80;96.70;;;;;;5055774;28;20390;-70
2022/08/14 12:42:07;;;;;;;7.72;6.53;;;27.60;94.70;;;;;;5056007;28;20021;-70
2022/08/14 12:44:36;;;;;;;8.93;7.25;;;27.60;94.20;;;;;;5037866;28;20127;-70
2022/08/14 12:47:16;;;;;;;8.43;7.60;;;27.40;94.30;;;;;;5037930;28;20032;-70
2022/08/14 12:49:53;;;;;;;8.07;6.63;;;27.20;94.60;;;;;;5055788;28;20029;-71
2022/08/14 12:52:30;;;;;;;8.32;6.47;;;27.20;93.80;;;;;;5055752;28;20027;-70
2022/08/14 12:55:09;;;;;;;7.40;6.70;;;27.30;94.50;;;;;;5037815;28;20021;-70
2022/08/14 12:57:43;;;;;;;6.90;6.13;;;27.80;93.30;;;;;;5038044;28;20428;-70
2022/08/14 13:00:21;;;;;;;7.75;6.75;;;28.90;91.70;;;;;;5037685;28;20032;-70
2022/08/14 13:02:50;;;;;;;8.65;6.47;;;29.50;89.60;;;;;;5037522;28;20029;-71
2022/08/14 13:05:16;;;;;;;;;;;30.10;87.10;;;;;;5055979;28;20040;-71
2022/08/14 13:07:42;;;;;;;9.77;6.05;;;30.30;83.10;;;;;;5055190;28;19930;-71
2022/08/14 13:10:15;;;;;;;7.40;6.65;;;31.00;80.10;;;;;;5055072;28;20510;-71
2022/08/14 13:12:42;;;;;;;5.70;5.10;;;31.50;77.10;;;;;;5055582;28;20108;-71